Terminal Aerodrome Forecast
Issued by NWS Paducah, KY

Home | Current Version | Previous Version | Text Only | Print | Product List | Glossary On
Versions: 1 2 3 4 5 6 7 8 9 10 11 12 13 14 15 16 17 18 19
456
FTUS43 KPAH 152347
TAFEVV
TAF
KEVV 152347Z 1600/1624 06005KT 4SM -SHRA BR OVC005
     FM160600 08004KT 3SM BR OVC004
     FM161700 13007KT 4SM -DZ BR OVC005
     FM162200 15009KT 5SM -SHRA BR OVC007=

USA.gov is the U.S. government's official web portal to all federal, state and local government web resources and services.